sensor_id;sensor_type;location;lat;lon;timestamp;pressure;altitude;pressure_sealevel;temperature;humidity
17764;BME280;22245;52.832;13.816;2022-12-24T00:00:05;100225.47;;;6.34;88.16
17764;BME280;22245;52.832;13.816;2022-12-24T00:03:27;100227.41;;;6.32;88.29
17764;BME280;22245;52.832;13.816;2022-12-24T00:06:49;100231.88;;;6.31;88.29
17764;BME280;22245;52.832;13.816;2022-12-24T00:10:12;100231.97;;;6.30;88.32
17764;BME280;22245;52.832;13.816;2022-12-24T00:13:34;100234.59;;;6.30;87.72
17764;BME280;22245;52.832;13.816;2022-12-24T00:16:55;100239.91;;;6.30;87.77
17764;BME280;22245;52.832;13.816;2022-12-24T00:20:18;100233.78;;;6.29;88.12
17764;BME280;22245;52.832;13.816;2022-12-24T00:23:40;100231.97;;;6.30;87.96
17764;BME280;22245;52.832;13.816;2022-12-24T00:27:03;100220.66;;;6.28;87.79
17764;BME280;22245;52.832;13.816;2022-12-24T00:30:25;100225.94;;;6.28;87.91
17764;BME280;22245;52.832;13.816;2022-12-24T00:33:47;100229.56;;;6.27;87.93
17764;BME280;22245;52.832;13.816;2022-12-24T00:37:09;100231.47;;;6.25;87.95
17764;BME280;22245;52.832;13.816;2022-12-24T00:40:31;100221.94;;;6.22;88.22
17764;BME280;22245;52.832;13.816;2022-12-24T00:43:56;100223.03;;;6.19;88.26
17764;BME280;22245;52.832;13.816;2022-12-24T00:47:18;100241.38;;;6.10;88.66
17764;BME280;22245;52.832;13.816;2022-12-24T00:50:40;100243.22;;;6.09;88.57
17764;BME280;22245;52.832;13.816;2022-12-24T00:54:03;100243.06;;;6.11;88.69
17764;BME280;22245;52.832;13.816;2022-12-24T00:57:25;100248.25;;;6.12;88.77
17764;BME280;22245;52.832;13.816;2022-12-24T01:00:48;100250.19;;;6.10;88.67
17764;BME280;22245;52.832;13.816;2022-12-24T01:04:10;100255.25;;;6.13;88.79
17764;BME280;22245;52.832;13.816;2022-12-24T01:07:48;100260.41;;;6.15;88.61
17764;BME280;22245;52.832;13.816;2022-12-24T01:11:11;100259.56;;;6.14;88.49
17764;BME280;22245;52.832;13.816;2022-12-24T01:14:33;100265.69;;;6.15;88.69
17764;BME280;22245;52.832;13.816;2022-12-24T01:17:56;100276.16;;;6.16;88.74
17764;BME280;22245;52.832;13.816;2022-12-24T01:21:18;100271.59;;;6.18;88.37
17764;BME280;22245;52.832;13.816;2022-12-24T01:24:41;100280.00;;;6.12;88.18
17764;BME280;22245;52.832;13.816;2022-12-24T01:28:02;100278.06;;;6.14;88.07
17764;BME280;22245;52.832;13.816;2022-12-24T01:31:24;100272.66;;;6.16;88.32
17764;BME280;22245;52.832;13.816;2022-12-24T01:34:47;100277.84;;;6.17;88.04
17764;BME280;22245;52.832;13.816;2022-12-24T01:38:09;100275.31;;;6.16;87.70
17764;BME280;22245;52.832;13.816;2022-12-24T01:41:32;100271.94;;;6.14;87.66
17764;BME280;22245;52.832;13.816;2022-12-24T01:45:40;100280.72;;;6.14;88.18
17764;BME280;22245;52.832;13.816;2022-12-24T01:49:03;100285.06;;;6.15;87.87
17764;BME280;22245;52.832;13.816;2022-12-24T01:52:31;100289.38;;;6.16;87.64
17764;BME280;22245;52.832;13.816;2022-12-24T01:55:54;100291.16;;;6.16;87.72
17764;BME280;22245;52.832;13.816;2022-12-24T01:59:16;100293.94;;;6.14;88.03
17764;BME280;22245;52.832;13.816;2022-12-24T02:02:42;100295.84;;;6.12;87.39
17764;BME280;22245;52.832;13.816;2022-12-24T02:06:06;100297.53;;;6.13;87.54
17764;BME280;22245;52.832;13.816;2022-12-24T02:09:31;100303.06;;;6.10;87.48
17764;BME280;22245;52.832;13.816;2022-12-24T02:12:53;100302.19;;;6.10;87.82
17764;BME280;22245;52.832;13.816;2022-12-24T02:16:24;100315.56;;;6.08;87.62
17764;BME280;22245;52.832;13.816;2022-12-24T02:20:18;100317.44;;;6.06;87.94
17764;BME280;22245;52.832;13.816;2022-12-24T02:27:43;100323.47;;;6.08;87.56
17764;BME280;22245;52.832;13.816;2022-12-24T02:31:14;100335.34;;;6.02;87.54
17764;BME280;22245;52.832;13.816;2022-12-24T02:34:44;100341.44;;;6.03;87.52
17764;BME280;22245;52.832;13.816;2022-12-24T02:38:13;100327.41;;;6.02;87.55
17764;BME280;22245;52.832;13.816;2022-12-24T02:41:41;100337.13;;;6.02;87.30
17764;BME280;22245;52.832;13.816;2022-12-24T02:45:22;100347.59;;;6.03;87.41
17764;BME280;22245;52.832;13.816;2022-12-24T02:48:48;100350.25;;;6.03;87.48
17764;BME280;22245;52.832;13.816;2022-12-24T02:52:29;100346.00;;;6.01;87.44
17764;BME280;22245;52.832;13.816;2022-12-24T02:56:05;100349.38;;;6.03;87.09
17764;BME280;22245;52.832;13.816;2022-12-24T02:59:50;100359.00;;;6.04;87.08
17764;BME280;22245;52.832;13.816;2022-12-24T03:03:32;100354.44;;;6.06;86.61
17764;BME280;22245;52.832;13.816;2022-12-24T03:06:59;100358.91;;;6.05;86.68
17764;BME280;22245;52.832;13.816;2022-12-24T03:10:30;100356.59;;;6.01;86.59
17764;BME280;22245;52.832;13.816;2022-12-24T03:13:56;100374.31;;;5.99;86.73
17764;BME280;22245;52.832;13.816;2022-12-24T03:17:20;100371.59;;;6.00;86.63
17764;BME280;22245;52.832;13.816;2022-12-24T03:20:44;100376.97;;;5.99;86.71
17764;BME280;22245;52.832;13.816;2022-12-24T03:24:10;100385.03;;;5.97;86.62
17764;BME280;22245;52.832;13.816;2022-12-24T03:27:33;100386.06;;;5.94;86.51
17764;BME280;22245;52.832;13.816;2022-12-24T03:30:59;100390.63;;;5.92;86.60
17764;BME280;22245;52.832;13.816;2022-12-24T03:34:21;100393.41;;;5.91;86.63
17764;BME280;22245;52.832;13.816;2022-12-24T03:37:43;100393.41;;;5.91;86.48
17764;BME280;22245;52.832;13.816;2022-12-24T03:41:06;100390.03;;;5.89;86.38
17764;BME280;22245;52.832;13.816;2022-12-24T03:44:28;100388.34;;;5.88;86.32
17764;BME280;22245;52.832;13.816;2022-12-24T03:47:49;100401.63;;;5.86;86.23
17764;BME280;22245;52.832;13.816;2022-12-24T03:51:17;100399.94;;;5.85;85.92
17764;BME280;22245;52.832;13.816;2022-12-24T03:54:39;100408.94;;;5.83;85.80
17764;BME280;22245;52.832;13.816;2022-12-24T03:58:02;100403.56;;;5.84;85.77
17764;BME280;22245;52.832;13.816;2022-12-24T04:01:23;100395.94;;;5.79;85.33
17764;BME280;22245;52.832;13.816;2022-12-24T04:04:45;100414.56;;;5.78;85.40
17764;BME280;22245;52.832;13.816;2022-12-24T04:08:07;100421.75;;;5.76;85.64
17764;BME280;22245;52.832;13.816;2022-12-24T04:11:28;100423.66;;;5.74;85.53
17764;BME280;22245;52.832;13.816;2022-12-24T04:14:51;100428.94;;;5.74;85.45
17764;BME280;22245;52.832;13.816;2022-12-24T04:18:13;100436.13;;;5.72;85.22
17764;BME280;22245;52.832;13.816;2022-12-24T04:21:34;100441.41;;;5.72;85.34
17764;BME280;22245;52.832;13.816;2022-12-24T04:24:56;100438.88;;;5.70;85.37
17764;BME280;22245;52.832;13.816;2022-12-24T04:28:17;100431.91;;;5.69;85.32
17764;BME280;22245;52.832;13.816;2022-12-24T04:31:41;100432.84;;;5.68;85.44
17764;BME280;22245;52.832;13.816;2022-12-24T04:35:03;100430.28;;;5.67;85.54
17764;BME280;22245;52.832;13.816;2022-12-24T04:38:25;100434.03;;;5.64;85.74
17764;BME280;22245;52.832;13.816;2022-12-24T04:41:47;100438.44;;;5.63;85.69
17764;BME280;22245;52.832;13.816;2022-12-24T04:45:09;100448.19;;;5.63;85.43
17764;BME280;22245;52.832;13.816;2022-12-24T04:48:32;100438.66;;;5.60;85.44
17764;BME280;22245;52.832;13.816;2022-12-24T04:51:54;100443.19;;;5.58;85.51
17764;BME280;22245;52.832;13.816;2022-12-24T04:55:16;100440.69;;;5.57;85.85
17764;BME280;22245;52.832;13.816;2022-12-24T04:58:37;100448.69;;;5.55;85.87
17764;BME280;22245;52.832;13.816;2022-12-24T05:02:00;100448.69;;;5.55;85.95
17764;BME280;22245;52.832;13.816;2022-12-24T05:05:23;100447.75;;;5.56;85.99
17764;BME280;22245;52.832;13.816;2022-12-24T05:08:45;100460.13;;;5.56;85.92
17764;BME280;22245;52.832;13.816;2022-12-24T05:12:07;100460.13;;;5.56;85.94
17764;BME280;22245;52.832;13.816;2022-12-24T05:15:29;100468.16;;;5.54;86.16
17764;BME280;22245;52.832;13.816;2022-12-24T05:18:51;100474.38;;;5.53;86.05
17764;BME280;22245;52.832;13.816;2022-12-24T05:22:15;100472.69;;;5.52;86.11
17764;BME280;22245;52.832;13.816;2022-12-24T05:25:54;100480.75;;;5.50;86.36
17764;BME280;22245;52.832;13.816;2022-12-24T05:29:33;100481.56;;;5.51;86.48
17764;BME280;22245;52.832;13.816;2022-12-24T05:32:55;100483.38;;;5.50;86.28
17764;BME280;22245;52.832;13.816;2022-12-24T05:36:16;100490.44;;;5.50;86.33
17764;BME280;22245;52.832;13.816;2022-12-24T05:39:39;100494.25;;;5.46;86.36
17764;BME280;22245;52.832;13.816;2022-12-24T05:43:01;100488.09;;;5.45;86.54
17764;BME280;22245;52.832;13.816;2022-12-24T05:46:24;100495.94;;;5.47;86.72
17764;BME280;22245;52.832;13.816;2022-12-24T05:49:46;100489.78;;;5.46;86.28
17764;BME280;22245;52.832;13.816;2022-12-24T05:53:08;100500.25;;;5.48;86.53
17764;BME280;22245;52.832;13.816;2022-12-24T05:56:31;100506.59;;;5.45;86.82
17764;BME280;22245;52.832;13.816;2022-12-24T05:59:53;100505.63;;;5.46;86.57
17764;BME280;22245;52.832;13.816;2022-12-24T06:03:14;100512.59;;;5.47;86.52
17764;BME280;22245;52.832;13.816;2022-12-24T06:06:36;100514.31;;;5.48;86.53
17764;BME280;22245;52.832;13.816;2022-12-24T06:09:57;100520.44;;;5.49;86.24
17764;BME280;22245;52.832;13.816;2022-12-24T06:13:20;100523.19;;;5.47;86.19
17764;BME280;22245;52.832;13.816;2022-12-24T06:16:42;100528.47;;;5.47;86.35
17764;BME280;22245;52.832;13.816;2022-12-24T06:20:04;100525.94;;;5.46;86.41
17764;BME280;22245;52.832;13.816;2022-12-24T06:23:28;100526.97;;;5.43;86.63
17764;BME280;22245;52.832;13.816;2022-12-24T06:26:49;100541.88;;;5.44;86.63
17764;BME280;22245;52.832;13.816;2022-12-24T06:30:13;100545.47;;;5.43;86.67
17764;BME280;22245;52.832;13.816;2022-12-24T06:33:37;100552.66;;;5.41;86.79
17764;BME280;22245;52.832;13.816;2022-12-24T06:36:59;100550.63;;;5.32;86.81
17764;BME280;22245;52.832;13.816;2022-12-24T06:40:21;100555.47;;;5.25;87.19
17764;BME280;22245;52.832;13.816;2022-12-24T06:43:43;100556.41;;;5.24;87.55
17764;BME280;22245;52.832;13.816;2022-12-24T06:47:07;100570.34;;;5.26;87.35
17764;BME280;22245;52.832;13.816;2022-12-24T06:50:28;100579.13;;;5.27;87.63
17764;BME280;22245;52.832;13.816;2022-12-24T06:53:50;100583.00;;;5.21;87.76
17764;BME280;22245;52.832;13.816;2022-12-24T06:57:12;100586.06;;;5.15;88.00
17764;BME280;22245;52.832;13.816;2022-12-24T07:00:33;100593.91;;;5.16;87.90
17764;BME280;22245;52.832;13.816;2022-12-24T07:03:56;100590.09;;;5.20;88.03
17764;BME280;22245;52.832;13.816;2022-12-24T07:07:18;100601.28;;;5.24;87.96
17764;BME280;22245;52.832;13.816;2022-12-24T07:10:39;100601.09;;;5.27;87.95
17764;BME280;22245;52.832;13.816;2022-12-24T07:14:01;100606.56;;;5.24;87.64
17764;BME280;22245;52.832;13.816;2022-12-24T07:17:23;100616.75;;;5.30;87.61
17764;BME280;22245;52.832;13.816;2022-12-24T07:20:47;100614.22;;;5.29;87.54
17764;BME280;22245;52.832;13.816;2022-12-24T07:24:08;100621.28;;;5.28;87.64
17764;BME280;22245;52.832;13.816;2022-12-24T07:27:30;100626.66;;;5.27;87.61
17764;BME280;22245;52.832;13.816;2022-12-24T07:30:52;100639.00;;;5.26;87.89
17764;BME280;22245;52.832;13.816;2022-12-24T07:34:14;100643.34;;;5.27;87.90
17764;BME280;22245;52.832;13.816;2022-12-24T07:37:37;100645.34;;;5.24;87.84
17764;BME280;22245;52.832;13.816;2022-12-24T07:40:58;100652.13;;;5.28;87.88
17764;BME280;22245;52.832;13.816;2022-12-24T07:44:20;100657.41;;;5.28;87.88
17764;BME280;22245;52.832;13.816;2022-12-24T07:47:42;100658.16;;;5.30;87.71
17764;BME280;22245;52.832;13.816;2022-12-24T07:51:03;100664.28;;;5.30;87.77
17764;BME280;22245;52.832;13.816;2022-12-24T07:54:26;100667.78;;;5.31;87.55
17764;BME280;22245;52.832;13.816;2022-12-24T07:57:48;100674.66;;;5.33;87.32
17764;BME280;22245;52.832;13.816;2022-12-24T08:01:10;100680.78;;;5.34;87.22
17764;BME280;22245;52.832;13.816;2022-12-24T08:04:31;100676.34;;;5.34;87.14
17764;BME280;22245;52.832;13.816;2022-12-24T08:07:55;100677.19;;;5.35;87.16
17764;BME280;22245;52.832;13.816;2022-12-24T08:11:18;100681.63;;;5.34;87.33
17764;BME280;22245;52.832;13.816;2022-12-24T08:14:40;100682.66;;;5.32;87.27
17764;BME280;22245;52.832;13.816;2022-12-24T08:18:02;100690.50;;;5.33;87.25
17764;BME280;22245;52.832;13.816;2022-12-24T08:21:24;100685.22;;;5.33;87.37
17764;BME280;22245;52.832;13.816;2022-12-24T08:24:45;100688.69;;;5.34;87.40
17764;BME280;22245;52.832;13.816;2022-12-24T08:28:08;100687.75;;;5.35;87.22
17764;BME280;22245;52.832;13.816;2022-12-24T08:31:29;100693.88;;;5.35;87.32
17764;BME280;22245;52.832;13.816;2022-12-24T08:34:55;100708.69;;;5.38;87.15
17764;BME280;22245;52.832;13.816;2022-12-24T08:38:18;100703.50;;;5.36;87.22
17764;BME280;22245;52.832;13.816;2022-12-24T08:41:40;100710.47;;;5.38;86.83
17764;BME280;22245;52.832;13.816;2022-12-24T08:45:03;100713.13;;;5.38;86.58
17764;BME280;22245;52.832;13.816;2022-12-24T08:48:25;100714.34;;;5.32;86.65
17764;BME280;22245;52.832;13.816;2022-12-24T08:51:47;100717.94;;;5.31;86.72
17764;BME280;22245;52.832;13.816;2022-12-24T08:55:09;100718.69;;;5.33;86.60
17764;BME280;22245;52.832;13.816;2022-12-24T08:58:31;100730.00;;;5.35;86.65
17764;BME280;22245;52.832;13.816;2022-12-24T09:01:54;100728.97;;;5.38;86.54
17764;BME280;22245;52.832;13.816;2022-12-24T09:05:16;100732.38;;;5.40;86.52
17764;BME280;22245;52.832;13.816;2022-12-24T09:08:38;100731.41;;;5.41;86.55
17764;BME280;22245;52.832;13.816;2022-12-24T09:11:59;100739.22;;;5.42;86.60
17764;BME280;22245;52.832;13.816;2022-12-24T09:15:21;100740.91;;;5.43;86.78
17764;BME280;22245;52.832;13.816;2022-12-24T09:18:44;100752.34;;;5.44;86.52
17764;BME280;22245;52.832;13.816;2022-12-24T09:22:06;100752.16;;;5.47;86.49
17764;BME280;22245;52.832;13.816;2022-12-24T09:25:28;100746.31;;;5.42;86.76
17764;BME280;22245;52.832;13.816;2022-12-24T09:28:50;100742.53;;;5.46;86.57
17764;BME280;22245;52.832;13.816;2022-12-24T09:32:13;100753.09;;;5.46;86.67
17764;BME280;22245;52.832;13.816;2022-12-24T09:35:38;100761.84;;;5.46;86.61
17764;BME280;22245;52.832;13.816;2022-12-24T09:38:59;100766.19;;;5.47;86.65
17764;BME280;22245;52.832;13.816;2022-12-24T09:42:27;100770.53;;;5.48;86.58
17764;BME280;22245;52.832;13.816;2022-12-24T09:46:05;100773.16;;;5.48;86.41
17764;BME280;22245;52.832;13.816;2022-12-24T09:49:36;100784.69;;;5.47;86.54
17764;BME280;22245;52.832;13.816;2022-12-24T09:53:03;100784.59;;;5.49;86.85
17764;BME280;22245;52.832;13.816;2022-12-24T09:56:30;100797.06;;;5.47;86.58
17764;BME280;22245;52.832;13.816;2022-12-24T09:59:54;100798.00;;;5.46;86.72
17764;BME280;22245;52.832;13.816;2022-12-24T10:03:16;100792.59;;;5.47;86.67
17764;BME280;22245;52.832;13.816;2022-12-24T10:06:46;100798.66;;;5.49;86.56
17764;BME280;22245;52.832;13.816;2022-12-24T10:10:18;100799.50;;;5.50;86.58
17764;BME280;22245;52.832;13.816;2022-12-24T10:13:54;100794.97;;;5.52;86.61
17764;BME280;22245;52.832;13.816;2022-12-24T10:17:41;100797.72;;;5.50;86.83
17764;BME280;22245;52.832;13.816;2022-12-24T10:21:11;100802.34;;;5.47;87.12
17764;BME280;22245;52.832;13.816;2022-12-24T10:24:38;100808.09;;;5.54;87.95
17764;BME280;22245;52.832;13.816;2022-12-24T10:28:14;100816.78;;;5.56;87.11
17764;BME280;22245;52.832;13.816;2022-12-24T10:31:40;100819.31;;;5.57;86.98
17764;BME280;22245;52.832;13.816;2022-12-24T10:35:10;100813.06;;;5.58;87.50
17764;BME280;22245;52.832;13.816;2022-12-24T10:38:37;100820.91;;;5.60;87.66
17764;BME280;22245;52.832;13.816;2022-12-24T10:41:59;100827.78;;;5.62;87.80
17764;BME280;22245;52.832;13.816;2022-12-24T10:45:26;100829.47;;;5.63;87.06
17764;BME280;22245;52.832;13.816;2022-12-24T10:48:54;100842.50;;;5.67;86.79
17764;BME280;22245;52.832;13.816;2022-12-24T10:52:21;100850.41;;;5.67;86.68
17764;BME280;22245;52.832;13.816;2022-12-24T10:55:46;100852.03;;;5.69;86.66
17764;BME280;22245;52.832;13.816;2022-12-24T10:59:22;100858.34;;;5.67;86.70
17764;BME280;22245;52.832;13.816;2022-12-24T11:02:47;100864.41;;;5.69;86.78
17764;BME280;22245;52.832;13.816;2022-12-24T11:06:10;100854.69;;;5.69;86.70
17764;BME280;22245;52.832;13.816;2022-12-24T11:09:39;100868.75;;;5.70;86.41
17764;BME280;22245;52.832;13.816;2022-12-24T11:13:02;100866.09;;;5.70;86.58
17764;BME280;22245;52.832;13.816;2022-12-24T11:16:48;100860.91;;;5.68;86.45
17764;BME280;22245;52.832;13.816;2022-12-24T11:20:17;100865.25;;;5.69;86.08
17764;BME280;22245;52.832;13.816;2022-12-24T11:23:48;100861.66;;;5.70;86.04
17764;BME280;22245;52.832;13.816;2022-12-24T11:27:32;100874.78;;;5.72;85.98
17764;BME280;22245;52.832;13.816;2022-12-24T11:30:57;100871.19;;;5.73;85.75
17764;BME280;22245;52.832;13.816;2022-12-24T11:34:28;100875.63;;;5.72;85.87
17764;BME280;22245;52.832;13.816;2022-12-24T11:38:08;100886.94;;;5.74;86.18
17764;BME280;22245;52.832;13.816;2022-12-24T11:41:35;100886.94;;;5.74;86.14
17764;BME280;22245;52.832;13.816;2022-12-24T11:44:58;100881.56;;;5.76;86.29
17764;BME280;22245;52.832;13.816;2022-12-24T11:48:26;100883.47;;;5.74;86.04
17764;BME280;22245;52.832;13.816;2022-12-24T11:52:07;100886.88;;;5.76;86.55
17764;BME280;22245;52.832;13.816;2022-12-24T11:55:41;100886.00;;;5.75;86.64
17764;BME280;22245;52.832;13.816;2022-12-24T11:59:11;100877.13;;;5.76;86.77
17764;BME280;22245;52.832;13.816;2022-12-24T12:02:37;100874.28;;;5.79;86.76
17764;BME280;22245;52.832;13.816;2022-12-24T12:06:14;100883.06;;;5.80;86.65
17764;BME280;22245;52.832;13.816;2022-12-24T12:09:42;100900.53;;;5.83;86.43
17764;BME280;22245;52.832;13.816;2022-12-24T12:13:10;100897.03;;;5.82;86.18
17764;BME280;22245;52.832;13.816;2022-12-24T12:16:44;100898.81;;;5.82;86.20
17764;BME280;22245;52.832;13.816;2022-12-24T12:20:25;100899.56;;;5.84;86.21
17764;BME280;22245;52.832;13.816;2022-12-24T12:23:50;100905.06;;;5.80;86.55
17764;BME280;22245;52.832;13.816;2022-12-24T12:27:19;100919.97;;;5.82;86.47
17764;BME280;22245;52.832;13.816;2022-12-24T12:30:46;100911.00;;;5.84;86.40
17764;BME280;22245;52.832;13.816;2022-12-24T12:34:12;100907.41;;;5.85;86.38
17764;BME280;22245;52.832;13.816;2022-12-24T12:37:40;100914.41;;;5.86;86.15
17764;BME280;22245;52.832;13.816;2022-12-24T12:41:14;100923.28;;;5.85;86.45
17764;BME280;22245;52.832;13.816;2022-12-24T12:44:50;100928.56;;;5.85;86.75
17764;BME280;22245;52.832;13.816;2022-12-24T12:48:23;100933.84;;;5.85;86.72
17764;BME280;22245;52.832;13.816;2022-12-24T12:51:54;100930.34;;;5.85;86.69
17764;BME280;22245;52.832;13.816;2022-12-24T12:55:25;100940.84;;;5.86;86.81
17764;BME280;22245;52.832;13.816;2022-12-24T12:58:51;100944.31;;;5.87;86.83
17764;BME280;22245;52.832;13.816;2022-12-24T13:02:30;100950.47;;;5.87;87.16
17764;BME280;22245;52.832;13.816;2022-12-24T13:09:53;100951.31;;;5.88;87.12
17764;BME280;22245;52.832;13.816;2022-12-24T13:17:48;100948.28;;;5.94;87.23
17764;BME280;22245;52.832;13.816;2022-12-24T13:21:19;100949.25;;;5.93;87.13
17764;BME280;22245;52.832;13.816;2022-12-24T13:24:47;100938.56;;;5.94;87.20
17764;BME280;22245;52.832;13.816;2022-12-24T13:28:16;100941.13;;;5.96;87.60
17764;BME280;22245;52.832;13.816;2022-12-24T13:31:48;100949.88;;;5.97;87.51
17764;BME280;22245;52.832;13.816;2022-12-24T13:35:29;100943.66;;;5.98;87.52
17764;BME280;22245;52.832;13.816;2022-12-24T13:38:58;100950.75;;;5.97;88.03
17764;BME280;22245;52.832;13.816;2022-12-24T13:42:47;100957.81;;;5.97;88.21
17764;BME280;22245;52.832;13.816;2022-12-24T13:46:09;100962.91;;;6.00;88.38
17764;BME280;22245;52.832;13.816;2022-12-24T13:49:35;100962.91;;;6.00;88.81
17764;BME280;22245;52.832;13.816;2022-12-24T13:52:57;100958.31;;;6.03;88.75
17764;BME280;22245;52.832;13.816;2022-12-24T13:56:24;100972.38;;;6.04;88.50
17764;BME280;22245;52.832;13.816;2022-12-24T13:59:47;100979.34;;;6.05;88.69
17764;BME280;22245;52.832;13.816;2022-12-24T14:03:25;100985.50;;;6.05;88.96
17764;BME280;22245;52.832;13.816;2022-12-24T14:06:49;100987.13;;;6.08;88.76
17764;BME280;22245;52.832;13.816;2022-12-24T14:10:19;100987.13;;;6.08;88.82
17764;BME280;22245;52.832;13.816;2022-12-24T14:14:07;100998.66;;;6.07;89.17
17764;BME280;22245;52.832;13.816;2022-12-24T14:17:30;100995.22;;;6.05;89.41
17764;BME280;22245;52.832;13.816;2022-12-24T14:20:53;101008.44;;;6.05;89.46
17764;BME280;22245;52.832;13.816;2022-12-24T14:24:19;101004.03;;;6.05;89.45
17764;BME280;22245;52.832;13.816;2022-12-24T14:27:44;101011.00;;;6.06;89.53
17764;BME280;22245;52.832;13.816;2022-12-24T14:31:14;101020.84;;;6.04;89.68
17764;BME280;22245;52.832;13.816;2022-12-24T14:34:36;101022.59;;;6.04;89.76
17764;BME280;22245;52.832;13.816;2022-12-24T14:38:00;101026.88;;;6.06;89.63
17764;BME280;22245;52.832;13.816;2022-12-24T14:41:32;101033.03;;;6.07;89.56
17764;BME280;22245;52.832;13.816;2022-12-24T14:45:04;101027.75;;;6.07;89.47
17764;BME280;22245;52.832;13.816;2022-12-24T14:48:38;101026.78;;;6.08;89.72
17764;BME280;22245;52.832;13.816;2022-12-24T14:52:11;101035.38;;;6.12;89.65
17764;BME280;22245;52.832;13.816;2022-12-24T14:55:55;101036.22;;;6.12;89.68
17764;BME280;22245;52.832;13.816;2022-12-24T14:59:17;101034.72;;;6.08;89.78
17764;BME280;22245;52.832;13.816;2022-12-24T15:02:42;101044.63;;;6.04;90.20
17764;BME280;22245;52.832;13.816;2022-12-24T15:06:09;101046.25;;;6.07;90.04
17764;BME280;22245;52.832;13.816;2022-12-24T15:09:32;101047.00;;;6.09;89.95
17764;BME280;22245;52.832;13.816;2022-12-24T15:12:56;101054.00;;;6.10;89.96
17764;BME280;22245;52.832;13.816;2022-12-24T15:16:22;101059.91;;;6.14;89.96
17764;BME280;22245;52.832;13.816;2022-12-24T15:19:46;101066.91;;;6.15;89.79
17764;BME280;22245;52.832;13.816;2022-12-24T15:23:19;101077.78;;;6.10;89.47
17764;BME280;22245;52.832;13.816;2022-12-24T15:26:43;101070.88;;;6.07;89.25
17764;BME280;22245;52.832;13.816;2022-12-24T15:30:13;101075.22;;;6.08;89.26
17764;BME280;22245;52.832;13.816;2022-12-24T15:33:35;101072.50;;;6.10;89.27
17764;BME280;22245;52.832;13.816;2022-12-24T15:37:03;101078.63;;;6.11;89.48
17764;BME280;22245;52.832;13.816;2022-12-24T15:40:27;101079.38;;;6.13;88.95
17764;BME280;22245;52.832;13.816;2022-12-24T15:43:50;101078.53;;;6.12;88.57
17764;BME280;22245;52.832;13.816;2022-12-24T15:47:15;101078.53;;;6.12;88.82
17764;BME280;22245;52.832;13.816;2022-12-24T15:50:43;101093.53;;;6.12;89.04
17764;BME280;22245;52.832;13.816;2022-12-24T15:54:10;101085.72;;;6.10;88.91
17764;BME280;22245;52.832;13.816;2022-12-24T15:57:36;101092.78;;;6.10;89.24
17764;BME280;22245;52.832;13.816;2022-12-24T16:01:03;101099.03;;;6.08;89.40
17764;BME280;22245;52.832;13.816;2022-12-24T16:04:27;101094.75;;;6.06;89.55
17764;BME280;22245;52.832;13.816;2022-12-24T16:08:02;101100.16;;;6.04;89.78
17764;BME280;22245;52.832;13.816;2022-12-24T16:11:33;101104.78;;;6.01;89.69
17764;BME280;22245;52.832;13.816;2022-12-24T16:14:58;101111.91;;;5.99;89.44
17764;BME280;22245;52.832;13.816;2022-12-24T16:18:25;101111.06;;;5.98;89.53
17764;BME280;22245;52.832;13.816;2022-12-24T16:21:50;101113.59;;;6.00;89.45
17764;BME280;22245;52.832;13.816;2022-12-24T16:25:24;101112.63;;;6.02;89.58
17764;BME280;22245;52.832;13.816;2022-12-24T16:28:47;101120.44;;;6.04;89.35
17764;BME280;22245;52.832;13.816;2022-12-24T16:32:27;101135.47;;;6.03;89.00
17764;BME280;22245;52.832;13.816;2022-12-24T16:35:50;101134.00;;;5.98;89.29
17764;BME280;22245;52.832;13.816;2022-12-24T16:39:12;101146.13;;;6.02;89.05
17764;BME280;22245;52.832;13.816;2022-12-24T16:42:44;101153.22;;;6.01;89.17
17764;BME280;22245;52.832;13.816;2022-12-24T16:46:22;101144.44;;;6.01;88.97
17764;BME280;22245;52.832;13.816;2022-12-24T16:49:45;101143.41;;;6.03;89.11
17764;BME280;22245;52.832;13.816;2022-12-24T16:53:08;101147.75;;;6.04;89.27
17764;BME280;22245;52.832;13.816;2022-12-24T16:56:36;101147.75;;;6.04;89.42
17764;BME280;22245;52.832;13.816;2022-12-24T16:59:58;101153.72;;;6.08;89.64
17764;BME280;22245;52.832;13.816;2022-12-24T17:03:20;101151.06;;;6.08;89.58
17764;BME280;22245;52.832;13.816;2022-12-24T17:06:44;101154.47;;;6.10;89.29
17764;BME280;22245;52.832;13.816;2022-12-24T17:10:08;101159.84;;;6.08;89.29
17764;BME280;22245;52.832;13.816;2022-12-24T17:13:30;101163.69;;;6.03;89.82
17764;BME280;22245;52.832;13.816;2022-12-24T17:16:52;101171.78;;;6.00;90.35
17764;BME280;22245;52.832;13.816;2022-12-24T17:20:13;101174.38;;;6.01;90.46
17764;BME280;22245;52.832;13.816;2022-12-24T17:23:44;101177.03;;;6.01;90.40
17764;BME280;22245;52.832;13.816;2022-12-24T17:27:06;101172.56;;;6.02;90.67
17764;BME280;22245;52.832;13.816;2022-12-24T17:30:28;101188.25;;;6.05;90.33
17764;BME280;22245;52.832;13.816;2022-12-24T17:33:50;101190.81;;;6.06;90.41
17764;BME280;22245;52.832;13.816;2022-12-24T17:37:12;101189.94;;;6.06;90.27
17764;BME280;22245;52.832;13.816;2022-12-24T17:40:35;101183.75;;;6.07;89.91
17764;BME280;22245;52.832;13.816;2022-12-24T17:43:57;101187.31;;;6.06;89.69
17764;BME280;22245;52.832;13.816;2022-12-24T17:47:19;101190.81;;;6.06;89.29
17764;BME280;22245;52.832;13.816;2022-12-24T17:50:40;101182.13;;;6.04;89.04
17764;BME280;22245;52.832;13.816;2022-12-24T17:54:02;101186.72;;;6.01;88.44
17764;BME280;22245;52.832;13.816;2022-12-24T17:57:25;101197.47;;;5.98;87.98
17764;BME280;22245;52.832;13.816;2022-12-24T18:00:47;101202.94;;;5.94;87.79
17764;BME280;22245;52.832;13.816;2022-12-24T18:04:10;101207.75;;;5.88;87.49
17764;BME280;22245;52.832;13.816;2022-12-24T18:07:32;101213.34;;;5.82;87.32